Titusville, New Jersey
Current Conditions -  °F | °C
As of 9:09 PM on Friday 19 Dec 2014 (Local Time) from KTTN Reporting Station
Scattered Clouds Scattered Clouds  
Wind Chill: 25°   Ceiling: Unl
Heat Index: 31°   Visibility: 10mi
Dew Point: 19°   Wind: 6mph
Humidity: 61%   Direction: 340°NNW
Pressure: 30.17"   Gusts: NA
Location:  40.31°N, 74.88°W
Report Text: KTTN 200209Z AUTO 34005KT 10SM SCT028 M01/M07 A3017 RMK AO2 T10061072
Loading
Personal Weather Stations






























Interactive Weather Map New forecast layout! Learn more

10-Day Weather Forecast

Advertisements
Track Severe Weather on mobile